Latest Weather Observations for Hobart Airport

IDT60801

Issued at 5:31 pm EST Saturday 5 September 2015 (issued every 30 minutes, with the page automatically refreshed every 10 minutes)

About weather observations | Map of weather stations | Latest weather observations for TAS | Other Formats
Station Details ID: 094008 Name: HOBART AIRPORT Lat: -42.83 Lon: 147.50 Height: 4.0 m
Data from the previous 72 hours. | See also: Recent months at Hobart Airport
Date/Time
EST
Temp
°C
App
Temp
°C
Dew
Point
Rel
Hum
%
Delta-T
°C
Wind Press
QNH
hPa
Press
MSL
hPa
Rain
since 9 am
mm
Dir
 
Spd
km/h
Gust
km/h
Spd
kts
Gust
kts
05/05:00pm 8.8 4.6 1.8 61 2.9 S 13 17 7 9 1023.5 1023.6 0.0
05/04:30pm 9.0 4.1 2.0 61 2.9 S 17 19 9 10 1023.2 1023.3 0.0
05/04:00pm 9.1 3.8 1.9 60 3.0 S 19 24 10 13 1023.2 1023.3 0.0
05/03:30pm 9.4 3.9 1.7 58 3.2 S 20 26 11 14 1023.0 1023.1 0.0
05/03:00pm 9.3 4.4 2.1 61 3.0 S 17 24 9 13 1022.9 1023.0 0.0
05/02:30pm 9.5 4.3 2.4 61 3.0 SSE 19 28 10 15 1022.7 1022.8 0.0
05/02:00pm 9.0 4.2 2.6 64 2.7 SSE 17 26 9 14 1022.6 1022.7 0.0
05/01:30pm 9.6 4.9 3.1 64 2.8 S 17 26 9 14 1022.6 1022.7 0.0
05/01:00pm 9.1 3.9 3.8 69 2.3 S 20 26 11 14 1022.7 1022.8 0.0
05/12:30pm 8.8 3.4 4.7 75 1.8 SSE 22 30 12 16 1022.8 1022.9 0.0
05/12:00pm 9.8 4.3 4.1 67 2.5 SSE 22 30 12 16 1022.7 1022.8 0.0
05/11:30am 9.8 3.6 4.4 69 2.4 SSE 26 33 14 18 1022.6 1022.7 0.0
05/11:00am 9.6 3.5 4.6 71 2.2 SSE 26 33 14 18 1022.5 1022.6 0.0
05/10:30am 10.1 5.0 4.2 67 2.6 SSE 20 28 11 15 1022.6 1022.7 0.0
05/10:00am 9.1 4.7 4.8 74 1.9 SSW 17 26 9 14 1022.7 1022.8 0.0
05/09:30am 9.2 3.5 4.9 74 1.9 SSW 24 33 13 18 1022.6 1022.7 0.0
05/09:00am 9.3 4.9 4.6 72 2.1 SSW 17 26 9 14 1022.3 1022.4 0.0
05/08:30am 8.6 3.4 5.5 81 1.4 SSW 22 30 12 16 1022.0 1022.1 0.0
05/08:00am 8.9 4.7 3.6 69 2.3 SSW 15 24 8 13 1021.6 1021.6 0.0
05/07:30am 7.8 4.6 3.3 73 1.9 SW 9 11 5 6 1021.3 1021.3 0.0
05/07:00am 7.2 3.5 2.3 71 2.0 SW 11 13 6 7 1020.8 1020.8 0.0
05/06:30am 7.3 3.5 1.9 68 2.2 SW 11 17 6 9 1020.3 1020.3 0.0
05/06:00am 8.3 3.3 1.1 60 2.9 SW 17 22 9 12 1019.7 1019.7 0.0
05/05:30am 8.7 2.7 0.8 57 3.2 SW 22 30 12 16 1019.2 1019.2 0.0
05/05:00am 8.7 3.7 1.1 59 3.1 SW 17 24 9 13 1018.8 1018.8 0.0
05/04:30am 8.1 4.6 1.5 63 2.7 SSW 9 15 5 8 1018.5 1018.5 0.0
05/04:00am 8.6 4.2 0.6 57 3.2 SW 13 19 7 10 1018.0 1018.0 0.0
05/03:30am 7.8 4.6 3.3 73 1.9 WNW 9 13 5 7 1017.5 1017.5 0.0
05/03:00am 8.6 3.5 4.3 74 1.9 SW 20 26 11 14 1017.1 1017.1 0.0
05/02:30am 8.8 4.4 5.0 77 1.7 SSW 17 26 9 14 1017.4 1017.4 0.0
05/02:00am 9.3 5.0 5.3 76 1.8 SSW 17 26 9 14 1017.5 1017.5 0.0
05/01:30am 9.1 5.4 4.6 73 2.0 SSW 13 17 7 9 1017.3 1017.3 0.0
05/01:00am 9.4 6.7 3.6 67 2.5 S 7 9 4 5 1017.3 1017.3 0.0
05/12:30am 9.8 6.7 3.6 65 2.7 W 9 17 5 9 1017.0 1017.0 0.0
05/12:00am 9.2 6.4 3.4 67 2.5 SSE 7 11 4 6 1016.6 1016.6 0.0
 
Date/Time
EST
Temp
°C
App
Temp
°C
Dew
Point
Rel
Hum
%
Delta-T
°C
Wind Press
QNH
hPa
Press
MSL
hPa
Rain
since 9 am
mm
Dir
 
Spd
km/h
Gust
km/h
Spd
kts
Gust
kts
04/11:30pm 9.5 5.2 3.5 66 2.6 NNW 15 19 8 10 1016.2 1016.2 0.0
04/11:00pm 10.0 4.9 2.8 61 3.1 NW 19 28 10 15 1016.2 1016.2 0.0
04/10:30pm 10.0 4.9 3.0 62 3.0 NW 19 22 10 12 1016.3 1016.3 0.0
04/10:00pm 10.0 5.2 2.8 61 3.1 NW 17 26 9 14 1016.2 1016.2 0.0
04/09:30pm 10.5 5.1 2.6 58 3.4 NW 20 28 11 15 1016.1 1016.1 0.0
04/09:00pm 11.0 5.5 2.1 54 3.8 NW 20 33 11 18 1015.8 1015.8 0.0
04/08:30pm 11.0 5.2 2.1 54 3.8 NW 22 32 12 17 1015.8 1015.8 0.0
04/08:00pm 11.3 5.8 1.6 51 4.1 NW 20 26 11 14 1015.7 1015.7 0.0
04/07:30pm 11.2 5.0 2.1 53 3.9 NW 24 33 13 18 1015.7 1015.7 0.0
04/07:00pm 11.3 5.1 1.9 52 4.0 WNW 24 33 13 18 1015.4 1015.4 0.0
04/06:30pm 11.8 5.9 1.4 49 4.4 WNW 22 37 12 20 1015.3 1015.3 0.0
04/06:00pm 11.9 4.9 2.1 51 4.2 WNW 28 35 15 19 1015.2 1015.2 0.0
04/05:30pm 12.6 5.5 1.6 47 4.7 WNW 28 39 15 21 1014.8 1014.8 0.0
04/05:00pm 13.2 6.1 1.6 45 5.0 W 28 44 15 24 1014.6 1014.6 0.0
04/04:30pm 14.2 7.2 1.8 43 5.4 WNW 28 37 15 20 1014.3 1014.3 0.0
04/04:00pm 14.9 7.9 2.0 41 5.7 W 28 44 15 24 1014.3 1014.3 0.0
04/03:31pm 15.1 8.1 2.0 41 5.8 W 28 46 15 25 1014.1 1014.1 0.0
04/03:30pm 15.0 8.0 1.8 41 5.8 WNW 28 43 15 23 1014.1 1014.1 0.0
04/03:00pm 14.3 7.6 1.3 41 5.6 WNW 26 41 14 22 1014.2 1014.2 0.0
04/02:30pm 13.8 6.3 1.5 43 5.3 WNW 30 50 16 27 1014.4 1014.4 0.0
04/02:00pm 14.6 6.7 1.2 40 5.8 WNW 32 54 17 29 1014.7 1014.7 0.0
04/01:36pm 14.6 6.5 1.2 40 5.8 WNW 33 57 18 31 1015.0 1015.0 0.0
04/01:30pm 14.1 6.2 1.0 41 5.6 WNW 32 46 17 25 1015.1 1015.1 0.0
04/01:00pm 14.0 5.9 1.2 41 5.5 WNW 33 52 18 28 1015.3 1015.3 0.0
04/12:30pm 13.8 5.7 1.2 42 5.4 WNW 33 61 18 33 1015.8 1015.8 0.0
04/12:00pm 14.4 6.0 1.8 42 5.5 WNW 35 54 19 29 1016.0 1016.0 0.0
04/11:56am 14.1 6.1 1.7 43 5.4 WNW 33 54 18 29 1016.2 1016.2 0.0
04/11:30am 13.3 5.5 1.4 44 5.1 NW 32 44 17 24 1016.3 1016.3 0.0
04/11:15am 13.2 5.7 1.2 44 5.1 NW 30 48 16 26 1016.5 1016.5 0.0
04/11:00am 12.7 5.6 1.4 46 4.8 NW 28 44 15 24 1016.7 1016.7 0.0
04/10:44am 13.2 5.8 1.9 46 4.9 NW 30 48 16 26 1017.1 1017.1 0.0
04/10:30am 12.5 5.4 1.1 45 4.8 NW 28 41 15 22 1017.1 1017.1 0.0
04/10:00am 12.2 4.3 1.0 46 4.7 NW 32 44 17 24 1017.4 1017.4 0.0
04/09:30am 11.4 3.9 1.1 49 4.3 NW 30 41 16 22 1017.7 1017.7 0.0
04/09:00am 10.1 2.5 0.5 51 3.9 NNW 30 41 16 22 1017.7 1017.7 0.2
04/08:54am 9.6 1.6 0.4 52 3.7 NW 32 50 17 27 1017.8 1017.8 0.2
04/08:30am 8.9 0.9 0.4 55 3.4 NW 32 39 17 21 1018.1 1018.1 0.2
04/08:00am 7.5 2.7 0.4 61 2.8 NNW 15 26 8 14 1018.7 1018.7 0.2
04/07:30am 6.4 0.7 -0.4 62 2.6 NNW 19 30 10 16 1018.6 1018.6 0.2
04/07:00am 5.3 0.0 -0.9 64 2.3 NNW 17 24 9 13 1018.5 1018.5 0.2
04/06:30am 4.4 -0.2 -1.0 68 2.0 N 13 19 7 10 1018.6 1018.6 0.2
04/06:00am 4.5 -0.5 -0.9 68 2.0 N 15 22 8 12 1018.7 1018.7 0.2
04/05:30am 5.1 0.1 -1.1 64 2.3 N 15 26 8 14 1018.6 1018.6 0.2
04/05:00am 5.1 -0.3 -1.5 62 2.4 N 17 24 9 13 1018.6 1018.6 0.2
04/04:30am 4.7 0.8 -1.6 63 2.3 NW 9 19 5 10 1019.2 1019.2 0.2
04/04:00am 3.5 -0.3 -0.6 74 1.5 N 9 11 5 6 1019.3 1019.3 0.2
04/03:30am 3.3 -1.2 -0.5 76 1.4 NNW 13 19 7 10 1019.5 1019.5 0.2
04/03:00am 4.5 -0.1 -0.9 68 2.0 NNW 13 19 7 10 1019.5 1019.5 0.2
04/02:30am 4.4 0.3 -0.4 71 1.8 NNW 11 15 6 8 1019.7 1019.7 0.2
04/02:00am 3.4 -0.7 -0.4 76 1.4 NNW 11 15 6 8 1020.2 1020.2 0.2
04/01:30am 3.1 -1.0 -0.4 78 1.3 NNW 11 13 6 7 1020.4 1020.4 0.2
04/01:00am 2.7 0.8 0.6 86 0.8 CALM 0 0 0 0 1020.5 1020.5 0.2
04/12:30am 1.0 -2.2 0.5 96 0.2 W 7 7 4 4 - - 0.2
04/12:00am 2.7 -1.3 0.6 86 0.8 NW 11 13 6 7 - - 0.2
 
Date/Time
EST
Temp
°C
App
Temp
°C
Dew
Point
Rel
Hum
%
Delta-T
°C
Wind Press
QNH
hPa
Press
MSL
hPa
Rain
since 9 am
mm
Dir
 
Spd
km/h
Gust
km/h
Spd
kts
Gust
kts
03/11:30pm 3.5 -1.2 1.2 85 0.9 NW 15 17 8 9 - - 0.2
03/11:00pm 3.6 -0.8 0.4 79 1.2 NW 13 15 7 8 1020.9 1020.9 0.2
03/10:30pm 4.2 -0.1 1.1 80 1.2 NW 13 17 7 9 1020.8 1020.8 0.2
03/10:00pm 4.6 -0.4 1.5 80 1.2 NW 17 19 9 10 1020.9 1020.9 0.2
03/09:30pm 4.8 0.1 1.2 77 1.4 NW 15 19 8 10 1020.7 1020.7 0.2
03/09:00pm 5.1 2.7 -0.2 68 2.0 SSW 2 7 1 4 1020.5 1020.5 0.0
03/08:30pm 5.6 1.5 -0.5 65 2.3 NW 11 13 6 7 1020.3 1020.3 0.0
03/08:00pm 6.7 1.8 -0.3 61 2.7 S 15 19 8 10 1020.1 1020.1 0.0
03/07:30pm 7.6 1.7 -0.7 55 3.2 S 20 26 11 14 1019.7 1019.7 0.0
03/07:00pm 7.7 2.4 -0.6 55 3.2 S 17 26 9 14 1019.6 1019.6 0.0
03/06:30pm 7.5 0.9 -0.2 58 3.0 S 24 30 13 16 1019.1 1019.1 0.0
03/06:00pm 7.9 1.7 -0.6 55 3.3 S 22 33 12 18 1018.7 1018.7 0.0
03/05:30pm 8.1 1.1 -0.4 55 3.3 S 26 33 14 18 1018.0 1018.0 0.0
03/05:00pm 8.7 2.1 -0.5 52 3.6 S 24 30 13 16 1017.4 1017.4 0.0
03/04:30pm 9.3 1.4 -1.3 47 4.1 S 30 35 16 19 1017.2 1017.2 0.0
03/04:00pm 10.1 2.5 -1.9 43 4.6 S 28 33 15 18 1017.0 1017.0 0.0
03/03:30pm 10.1 2.6 -1.1 45 4.4 S 28 33 15 18 1016.9 1016.9 0.0
03/03:00pm 9.7 2.2 -1.4 46 4.3 SSW 28 35 15 19 1016.8 1016.8 0.0
03/02:30pm 9.8 3.6 -0.6 48 4.1 S 22 33 12 18 1016.5 1016.5 0.0
03/02:00pm 10.6 3.8 -1.8 42 4.8 S 24 32 13 17 1016.2 1016.2 0.0
03/01:30pm 10.4 3.9 0.0 48 4.2 SSW 24 35 13 19 1016.1 1016.1 0.0
03/01:00pm 9.7 3.6 2.7 61 3.0 SSW 24 33 13 18 1016.0 1016.0 0.0
03/12:30pm 11.1 4.0 1.6 52 4.0 S 28 39 15 21 1016.0 1016.0 0.0
03/12:00pm 10.2 3.8 1.0 53 3.8 SSW 24 33 13 18 1016.1 1016.1 0.0
03/11:30am 10.8 4.0 0.6 49 4.2 SSW 26 35 14 19 1015.8 1015.8 0.0
03/11:00am 10.6 3.7 0.0 48 4.3 SSW 26 35 14 19 1015.6 1015.6 0.0
03/10:30am 10.4 3.1 -0.3 47 4.3 SSW 28 41 15 22 1015.4 1015.4 0.0
03/10:00am 9.5 2.8 1.2 56 3.4 SSW 26 37 14 20 1015.2 1015.2 0.0
03/09:30am 10.1 4.0 2.9 61 3.1 SSW 24 37 13 20 1014.8 1014.8 0.0
03/09:00am 10.2 5.0 3.3 62 3.0 SSW 20 28 11 15 1014.5 1014.5 0.4
03/08:30am 9.5 4.5 3.8 67 2.5 S 19 28 10 15 1014.2 1014.2 0.4
03/08:00am 8.9 3.0 4.1 72 2.1 SSW 24 35 13 19 1013.5 1013.5 0.4
03/07:30am 8.6 4.3 5.3 80 1.5 SSW 17 28 9 15 1013.0 1013.0 0.4
03/07:00am 8.6 3.9 5.3 80 1.5 S 19 28 10 15 1012.3 1012.3 0.4
03/06:30am 8.9 4.6 5.1 77 1.7 S 17 20 9 11 1011.7 1011.7 0.4
03/06:00am 8.7 6.0 5.8 82 1.3 S 9 13 5 7 1011.1 1011.1 0.4
03/05:30am 8.5 4.7 5.9 84 1.2 S 15 24 8 13 1010.5 1010.5 0.4
03/05:00am 8.3 6.0 5.6 83 1.2 NE 7 11 4 6 1010.3 1010.3 0.4
03/04:30am 8.3 5.2 5.6 83 1.2 SSE 11 19 6 10 1009.8 1009.8 0.4
03/04:00am 8.3 2.8 6.1 86 1.0 S 24 32 13 17 1009.6 1009.6 0.4
03/03:30am 8.4 3.1 6.9 90 0.7 S 24 35 13 19 1009.4 1009.4 0.4
03/03:20am 8.6 2.9 6.9 89 0.8 S 26 33 14 18 1009.3 1009.3 0.4
03/03:00am 9.1 3.7 6.5 84 1.2 SSW 24 32 13 17 1009.2 1009.2 0.2
03/02:30am 9.1 4.5 6.7 85 1.1 SSW 20 30 11 16 1009.1 1009.1 0.2
03/02:00am 8.6 6.0 6.0 84 1.2 SSW 9 13 5 7 1009.0 1009.0 0.2
03/01:30am 8.2 5.2 6.2 87 0.9 SW 11 13 6 7 1008.8 1008.8 0.2
03/01:00am 8.5 5.9 6.1 85 1.1 NNW 9 11 5 6 1008.6 1008.6 0.2
03/12:30am 8.3 4.6 6.3 87 0.9 NW 15 17 8 9 1008.7 1008.7 0.2
03/12:00am 8.2 4.9 6.5 89 0.8 NNW 13 17 7 9 1008.9 1008.9 0.2
 
Date/Time
EST
Temp
°C
App
Temp
°C
Dew
Point
Rel
Hum
%
Delta-T
°C
Wind Press
QNH
hPa
Press
MSL
hPa
Rain
since 9 am
mm
Dir
 
Spd
km/h
Gust
km/h
Spd
kts
Gust
kts
02/11:30pm 8.3 5.4 6.3 87 0.9 NNW 11 13 6 7 1009.0 1009.0 0.2
02/11:00pm 8.3 5.8 6.6 89 0.8 NW 9 11 5 6 1009.3 1009.3 0.2
02/10:30pm 8.3 5.0 6.3 87 0.9 NW 13 15 7 8 1009.5 1009.5 0.2
02/10:00pm 8.5 5.9 5.9 84 1.2 NW 9 11 5 6 1009.5 1009.5 0.2
02/09:30pm 8.2 5.9 5.8 85 1.1 N 7 9 4 5 1009.4 1009.4 0.2
02/09:00pm 8.2 6.8 5.3 82 1.3 WNW 2 7 1 4 1009.4 1009.4 0.2
02/08:30pm 8.1 6.6 5.2 82 1.3 NW 2 9 1 5 1009.4 1009.4 0.2
02/08:00pm 8.2 6.3 5.1 81 1.4 NW 4 7 2 4 1009.3 1009.3 0.2
02/07:30pm 8.6 6.1 4.8 77 1.7 SSW 7 9 4 5 1009.1 1009.1 0.2
02/07:00pm 8.6 5.3 4.8 77 1.7 S 11 13 6 7 1009.1 1009.1 0.2
02/06:30pm 9.3 5.7 4.8 73 2.0 S 13 17 7 9 1008.8 1008.8 0.2
02/06:00pm 9.6 5.3 5.2 74 2.0 S 17 22 9 12 1008.8 1008.8 0.2

Other Formats:

Comma delimited format used in spreadsheet applications
http://www.bom.gov.au/fwo/IDT60801/IDT60801.94975.axf

JavaScript Object Notation format (JSON) in row-major order
http://www.bom.gov.au/fwo/IDT60801/IDT60801.94975.json